createdAt,value
2022-10-31T00:00:48.978Z,11.13
2022-10-31T00:03:16.761Z,11.12
2022-10-31T00:05:48.705Z,11.12
2022-10-31T00:08:15.976Z,11.07
2022-10-31T00:10:43.071Z,11.07
2022-10-31T00:13:10.492Z,11.12
2022-10-31T00:15:38.902Z,11.35
2022-10-31T00:18:07.143Z,11.24
2022-10-31T00:20:34.906Z,11.34
2022-10-31T00:23:02.559Z,11.25
2022-10-31T00:25:30.601Z,11.26
2022-10-31T00:27:57.401Z,11.19
2022-10-31T00:30:24.588Z,11.10
2022-10-31T00:32:51.058Z,11.03
2022-10-31T00:35:18.131Z,11.04
2022-10-31T00:37:45.747Z,10.95
2022-10-31T00:40:13.061Z,10.94
2022-10-31T00:42:42.814Z,10.90
2022-10-31T00:45:12.270Z,10.92
2022-10-31T00:47:38.811Z,10.89
2022-10-31T00:50:06.548Z,10.80
2022-10-31T00:52:33.118Z,10.80
2022-10-31T00:54:59.606Z,10.91
2022-10-31T00:57:26.021Z,10.84
2022-10-31T00:59:52.570Z,10.81
2022-10-31T01:02:19.836Z,10.89
2022-10-31T01:04:46.597Z,10.87
2022-10-31T01:07:14.953Z,10.76
2022-10-31T01:09:41.856Z,10.71
2022-10-31T01:12:08.324Z,10.63
2022-10-31T01:14:35.102Z,10.63
2022-10-31T01:17:01.596Z,10.53
2022-10-31T01:19:28.139Z,10.50
2022-10-31T01:21:57.639Z,10.58
2022-10-31T01:24:24.250Z,10.55
2022-10-31T01:26:50.698Z,10.51
2022-10-31T01:29:17.181Z,10.45
2022-10-31T01:31:43.813Z,10.44
2022-10-31T01:34:14.728Z,10.40
2022-10-31T01:36:42.048Z,10.35
2022-10-31T01:39:13.899Z,10.34
2022-10-31T01:41:43.330Z,10.29
2022-10-31T01:44:15.944Z,10.32
2022-10-31T01:46:53.671Z,10.25
2022-10-31T01:49:35.336Z,10.18
2022-10-31T01:52:15.947Z,10.29
2022-10-31T01:54:46.302Z,10.35
2022-10-31T01:57:13.985Z,10.27
2022-10-31T01:59:48.728Z,10.28
2022-10-31T02:02:16.669Z,10.32
2022-10-31T02:04:43.923Z,10.30
2022-10-31T02:07:14.609Z,10.32
2022-10-31T02:09:41.774Z,10.25
2022-10-31T02:12:10.778Z,10.22
2022-10-31T02:14:38.692Z,10.12
2022-10-31T02:17:05.546Z,10.09
2022-10-31T02:19:51.797Z,10.08
2022-10-31T02:22:26.715Z,10.07
2022-10-31T02:25:04.393Z,10.06
2022-10-31T02:28:02.747Z,9.99
2022-10-31T02:30:53.504Z,10.00
2022-10-31T02:33:31.854Z,10.00
2022-10-31T02:36:05.038Z,9.94
2022-10-31T02:38:57.256Z,9.91
2022-10-31T02:41:26.569Z,9.89
2022-10-31T02:44:08.690Z,9.87
2022-10-31T02:46:55.373Z,9.87
2022-10-31T02:49:30.718Z,9.84
2022-10-31T02:51:57.594Z,9.82
2022-10-31T02:54:26.356Z,9.83
2022-10-31T02:56:57.588Z,9.80
2022-10-31T02:59:24.555Z,9.82
2022-10-31T03:01:57.227Z,9.81
2022-10-31T03:04:41.452Z,9.81
2022-10-31T03:07:24.994Z,9.78
2022-10-31T03:10:33.697Z,9.78
2022-10-31T03:13:12.144Z,9.74
2022-10-31T03:15:50.500Z,9.75
2022-10-31T03:18:30.825Z,9.71
2022-10-31T03:21:05.081Z,9.70
2022-10-31T03:23:33.184Z,9.67
2022-10-31T03:26:02.038Z,9.65
2022-10-31T03:28:31.155Z,9.66
2022-10-31T03:30:58.130Z,9.60
2022-10-31T03:33:28.313Z,9.60
2022-10-31T03:35:56.541Z,9.65
2022-10-31T03:38:23.452Z,9.60
2022-10-31T03:40:52.385Z,9.61
2022-10-31T03:45:55.533Z,9.75
2022-10-31T03:48:22.846Z,9.67
2022-10-31T03:51:07.732Z,9.70
2022-10-31T03:53:48.233Z,9.69
2022-10-31T03:56:29.163Z,9.62
2022-10-31T03:59:00.029Z,9.57
2022-10-31T04:01:27.322Z,9.58
2022-10-31T04:03:54.117Z,9.49
2022-10-31T04:06:22.593Z,9.47
2022-10-31T04:09:01.621Z,9.38
2022-10-31T04:11:32.154Z,9.40
2022-10-31T04:14:01.028Z,9.35
2022-10-31T04:16:27.955Z,9.34
2022-10-31T04:18:54.470Z,9.33
2022-10-31T04:21:29.585Z,9.33
2022-10-31T04:23:56.355Z,9.25
2022-10-31T04:26:22.799Z,9.23
2022-10-31T04:28:49.394Z,9.27
2022-10-31T04:31:16.163Z,9.22
2022-10-31T04:33:42.672Z,9.19
2022-10-31T04:36:09.472Z,9.18
2022-10-31T04:38:35.973Z,9.20
2022-10-31T04:41:02.476Z,9.10
2022-10-31T04:43:28.895Z,9.10
2022-10-31T04:45:55.369Z,9.06
2022-10-31T04:48:21.812Z,9.08
2022-10-31T04:50:48.281Z,9.05
2022-10-31T04:53:14.722Z,9.01
2022-10-31T04:55:41.182Z,9.01
2022-10-31T04:58:07.804Z,8.98
2022-10-31T05:00:34.379Z,8.94
2022-10-31T05:03:01.350Z,8.91
2022-10-31T05:05:30.204Z,8.83
2022-10-31T05:07:57.033Z,8.85
2022-10-31T05:10:25.748Z,8.85
2022-10-31T05:12:53.150Z,8.86
2022-10-31T05:15:20.939Z,8.82
2022-10-31T05:17:47.847Z,8.79
2022-10-31T05:20:16.129Z,8.76
2022-10-31T05:22:46.585Z,8.75
2022-10-31T05:25:13.614Z,8.83
2022-10-31T05:27:41.716Z,8.76
2022-10-31T05:30:08.838Z,8.78
2022-10-31T05:32:40.022Z,8.78
2022-10-31T05:35:09.234Z,8.86
2022-10-31T05:37:38.899Z,8.80
2022-10-31T05:40:08.534Z,8.81
2022-10-31T05:42:35.276Z,8.75
2022-10-31T05:45:02.444Z,8.74
2022-10-31T05:47:28.874Z,8.75
2022-10-31T05:49:55.298Z,8.76
2022-10-31T05:52:21.758Z,8.73
2022-10-31T05:54:48.267Z,8.71
2022-10-31T05:57:14.731Z,8.74
2022-10-31T05:59:41.139Z,8.84
2022-10-31T06:02:08.074Z,8.88
2022-10-31T06:04:34.616Z,8.89
2022-10-31T06:07:01.291Z,8.95
2022-10-31T06:09:27.738Z,8.93
2022-10-31T06:11:54.203Z,8.96
2022-10-31T06:14:20.646Z,8.99
2022-10-31T06:16:47.097Z,9.05
2022-10-31T06:19:13.680Z,9.11
2022-10-31T06:21:40.135Z,9.38
2022-10-31T06:24:06.784Z,9.81
2022-10-31T06:26:33.351Z,10.26
2022-10-31T06:29:03.178Z,10.53
2022-10-31T06:31:30.833Z,11.09
2022-10-31T06:33:57.571Z,11.61
2022-10-31T06:36:24.215Z,12.01
2022-10-31T06:38:50.706Z,12.44
2022-10-31T06:41:17.143Z,12.85
2022-10-31T06:43:43.839Z,13.37
2022-10-31T06:46:10.259Z,13.68
2022-10-31T06:48:36.734Z,13.64
2022-10-31T06:51:03.327Z,14.22
2022-10-31T06:53:30.705Z,13.94
2022-10-31T06:55:57.658Z,13.74
2022-10-31T06:58:24.713Z,14.31
2022-10-31T07:00:51.548Z,15.07
2022-10-31T07:03:18.302Z,16.28
2022-10-31T07:05:45.262Z,16.45
2022-10-31T07:08:13.630Z,16.88
2022-10-31T07:10:41.672Z,15.83
2022-10-31T07:13:14.585Z,15.82
2022-10-31T07:15:42.307Z,16.25
2022-10-31T07:18:10.384Z,16.58
2022-10-31T07:20:37.015Z,16.82
2022-10-31T07:23:04.173Z,18.15
2022-10-31T07:25:32.814Z,18.04
2022-10-31T07:27:59.739Z,17.57
2022-10-31T07:30:27.292Z,17.98
2022-10-31T07:32:54.297Z,17.46
2022-10-31T07:35:23.579Z,18.58
2022-10-31T07:37:50.443Z,18.29
2022-10-31T07:40:17.707Z,20.03
2022-10-31T07:42:45.921Z,20.26
2022-10-31T07:45:15.967Z,20.20
2022-10-31T07:47:44.313Z,18.87
2022-10-31T07:50:16.816Z,20.01
2022-10-31T07:52:43.340Z,20.70
2022-10-31T07:55:10.657Z,21.09
2022-10-31T07:57:40.571Z,21.70
2022-10-31T08:00:10.976Z,19.04
2022-10-31T08:02:37.777Z,19.61
2022-10-31T08:05:04.498Z,21.46
2022-10-31T08:07:31.087Z,21.52
2022-10-31T08:09:57.572Z,20.08
2022-10-31T08:12:24.058Z,21.77
2022-10-31T08:14:51.271Z,21.19
2022-10-31T08:17:17.737Z,22.69
2022-10-31T08:19:44.488Z,23.25
2022-10-31T08:22:10.942Z,23.83
2022-10-31T08:24:37.376Z,22.40
2022-10-31T08:27:04.184Z,22.82
2022-10-31T08:29:30.640Z,22.95
2022-10-31T08:31:58.823Z,23.51
2022-10-31T08:34:25.398Z,23.41
2022-10-31T08:36:52.868Z,24.24
2022-10-31T08:39:19.333Z,23.93
2022-10-31T08:41:45.873Z,23.83
2022-10-31T08:44:12.510Z,25.85
2022-10-31T08:46:38.975Z,26.49
2022-10-31T08:49:05.465Z,26.16
2022-10-31T08:51:32.145Z,25.56
2022-10-31T08:53:58.846Z,27.70
2022-10-31T08:56:25.329Z,27.75
2022-10-31T08:58:53.930Z,28.73
2022-10-31T09:01:20.637Z,28.95
2022-10-31T09:03:47.273Z,28.84
2022-10-31T09:06:14.033Z,29.06
2022-10-31T09:08:40.500Z,27.36
2022-10-31T09:11:09.837Z,27.87
2022-10-31T09:13:40.967Z,27.46
2022-10-31T09:16:08.123Z,27.35
2022-10-31T09:18:34.698Z,28.09
2022-10-31T09:21:01.877Z,27.20
2022-10-31T09:23:28.709Z,28.21
2022-10-31T09:25:57.204Z,27.49
2022-10-31T09:28:24.730Z,29.17
2022-10-31T09:30:53.227Z,29.10
2022-10-31T09:33:20.136Z,28.02
2022-10-31T09:35:46.615Z,28.60
2022-10-31T09:38:20.310Z,29.06
2022-10-31T09:41:15.412Z,28.59
2022-10-31T09:43:47.764Z,29.21
2022-10-31T09:46:41.855Z,29.49
2022-10-31T09:49:29.407Z,29.51
2022-10-31T09:52:04.869Z,28.55
2022-10-31T09:54:44.932Z,29.05
2022-10-31T09:57:16.905Z,27.85
2022-10-31T09:59:44.988Z,27.48
2022-10-31T10:02:18.995Z,27.93
2022-10-31T10:04:52.893Z,28.03
2022-10-31T10:07:31.233Z,29.20
2022-10-31T10:09:58.859Z,29.38
2022-10-31T10:12:34.328Z,29.48
2022-10-31T10:15:10.007Z,27.15
2022-10-31T10:18:04.611Z,28.93
2022-10-31T10:20:52.644Z,29.07
2022-10-31T10:23:36.332Z,26.11
2022-10-31T10:26:14.963Z,25.86
2022-10-31T10:28:44.309Z,27.57
2022-10-31T10:31:24.369Z,28.84
2022-10-31T10:34:04.759Z,29.67
2022-10-31T10:36:39.792Z,30.85
2022-10-31T10:39:12.255Z,30.44
2022-10-31T10:41:39.773Z,30.47
2022-10-31T10:44:10.103Z,31.08
2022-10-31T10:47:03.841Z,30.68
2022-10-31T10:49:47.165Z,30.79
2022-10-31T10:52:49.194Z,28.72
2022-10-31T10:55:30.895Z,30.13
2022-10-31T10:58:05.664Z,30.55
2022-10-31T11:00:35.811Z,30.43
2022-10-31T11:03:02.765Z,30.50
2022-10-31T11:05:43.421Z,30.78
2022-10-31T11:08:09.934Z,31.43
2022-10-31T11:10:36.661Z,31.45
2022-10-31T11:13:16.855Z,31.10
2022-10-31T11:15:54.695Z,31.32
2022-10-31T11:20:59.248Z,30.77
2022-10-31T11:23:27.859Z,30.56
2022-10-31T11:25:59.322Z,29.50
2022-10-31T11:28:36.023Z,30.41
2022-10-31T11:31:08.685Z,30.62
2022-10-31T11:33:37.718Z,28.31
2022-10-31T11:36:16.600Z,29.18
2022-10-31T11:38:44.603Z,29.92
2022-10-31T11:41:17.155Z,29.99
2022-10-31T11:44:19.176Z,29.96
2022-10-31T11:46:49.411Z,28.27
2022-10-31T11:49:36.369Z,29.04
2022-10-31T11:52:06.483Z,28.95
2022-10-31T11:54:51.293Z,26.64
2022-10-31T11:57:25.496Z,27.61
2022-10-31T11:59:54.614Z,27.62
2022-10-31T12:02:21.450Z,27.78
2022-10-31T12:04:55.320Z,27.63
2022-10-31T12:07:21.800Z,27.92
2022-10-31T12:09:48.543Z,27.47
2022-10-31T12:12:27.103Z,26.73
2022-10-31T12:15:12.998Z,26.76
2022-10-31T12:17:46.941Z,27.92
2022-10-31T12:20:18.982Z,27.34
2022-10-31T12:22:45.468Z,27.94
2022-10-31T12:25:30.609Z,28.31
2022-10-31T12:28:01.061Z,28.63
2022-10-31T12:30:37.532Z,28.31
2022-10-31T12:33:16.957Z,27.89
2022-10-31T12:36:15.484Z,26.69
2022-10-31T12:38:53.837Z,27.46
2022-10-31T12:41:30.939Z,27.95
2022-10-31T12:44:15.694Z,27.71
2022-10-31T12:46:54.676Z,27.08
2022-10-31T12:49:38.813Z,27.23
2022-10-31T12:52:26.752Z,26.68
2022-10-31T12:55:15.206Z,26.98
2022-10-31T12:57:48.677Z,27.32
2022-10-31T13:00:19.938Z,27.50
2022-10-31T13:02:50.520Z,27.61
2022-10-31T13:05:25.490Z,26.77
2022-10-31T13:07:59.152Z,26.82
2022-10-31T13:10:34.373Z,27.56
2022-10-31T13:13:08.590Z,26.64
2022-10-31T13:15:47.307Z,26.58
2022-10-31T13:18:23.107Z,26.28
2022-10-31T13:20:54.690Z,24.90
2022-10-31T13:26:29.899Z,25.98
2022-10-31T13:29:06.669Z,24.99
2022-10-31T13:31:34.015Z,25.81
2022-10-31T13:34:05.813Z,26.43
2022-10-31T13:36:40.691Z,26.28
2022-10-31T13:39:23.740Z,26.80
2022-10-31T13:41:54.815Z,27.10
2022-10-31T13:44:26.247Z,26.91
2022-10-31T13:46:54.599Z,26.82
2022-10-31T13:49:27.425Z,26.12
2022-10-31T13:51:54.233Z,26.44
2022-10-31T13:54:25.023Z,26.50
2022-10-31T13:56:52.732Z,26.20
2022-10-31T13:59:20.734Z,26.05
2022-10-31T14:01:54.702Z,25.55
2022-10-31T14:04:27.253Z,25.72
2022-10-31T14:06:58.283Z,25.75
2022-10-31T14:09:29.695Z,25.97
2022-10-31T14:11:57.826Z,26.01
2022-10-31T14:14:30.704Z,25.94
2022-10-31T14:16:58.188Z,25.57
2022-10-31T14:19:25.569Z,25.86
2022-10-31T14:21:52.226Z,25.69
2022-10-31T14:24:24.853Z,25.33
2022-10-31T14:26:59.670Z,25.28
2022-10-31T14:29:31.440Z,24.99
2022-10-31T14:32:02.894Z,24.78
2022-10-31T14:34:32.994Z,24.82
2022-10-31T14:37:21.511Z,24.52
2022-10-31T14:40:26.163Z,24.11
2022-10-31T14:43:11.398Z,23.78
2022-10-31T14:46:02.667Z,23.46
2022-10-31T14:48:48.470Z,23.16
2022-10-31T14:51:19.445Z,22.73
2022-10-31T14:53:55.822Z,22.33
2022-10-31T14:56:34.488Z,22.04
2022-10-31T14:59:05.078Z,21.71
2022-10-31T15:01:34.699Z,21.46
2022-10-31T15:04:27.649Z,21.27
2022-10-31T15:07:11.628Z,20.86
2022-10-31T15:09:41.876Z,20.66
2022-10-31T15:12:27.005Z,20.31
2022-10-31T15:14:53.979Z,20.18
2022-10-31T15:17:21.936Z,20.00
2022-10-31T15:19:48.654Z,19.78
2022-10-31T15:22:18.017Z,19.68
2022-10-31T15:24:45.327Z,19.41
2022-10-31T15:27:14.924Z,19.35
2022-10-31T15:29:51.509Z,19.04
2022-10-31T15:32:23.742Z,18.87
2022-10-31T15:34:52.455Z,18.73
2022-10-31T15:37:21.584Z,18.46
2022-10-31T15:39:49.377Z,18.27
2022-10-31T15:42:22.374Z,18.12
2022-10-31T15:45:12.110Z,17.99
2022-10-31T15:47:38.910Z,17.90
2022-10-31T15:50:21.135Z,17.77
2022-10-31T15:52:48.850Z,17.64
2022-10-31T15:55:16.766Z,17.54
2022-10-31T15:57:45.460Z,17.38
2022-10-31T16:00:26.681Z,17.29
2022-10-31T16:03:15.641Z,17.22
2022-10-31T16:06:04.759Z,17.13
2022-10-31T16:08:31.235Z,17.05
2022-10-31T16:11:00.749Z,16.88
2022-10-31T16:13:33.007Z,16.72
2022-10-31T16:19:01.871Z,16.58
2022-10-31T16:21:31.688Z,16.54
2022-10-31T16:24:06.315Z,16.38
2022-10-31T16:26:33.530Z,16.37
2022-10-31T16:29:04.698Z,16.27
2022-10-31T16:31:38.153Z,16.21
2022-10-31T16:34:06.474Z,16.20
2022-10-31T16:36:38.939Z,16.20
2022-10-31T16:39:05.993Z,16.19
2022-10-31T16:41:35.996Z,16.19
2022-10-31T16:44:04.829Z,16.17
2022-10-31T16:46:31.277Z,16.17
2022-10-31T16:48:58.126Z,16.17
2022-10-31T16:51:24.562Z,16.26
2022-10-31T16:53:54.444Z,16.41
2022-10-31T16:56:47.378Z,16.56
2022-10-31T16:59:16.363Z,16.35
2022-10-31T17:01:45.388Z,16.36
2022-10-31T17:04:14.556Z,16.24
2022-10-31T17:06:42.156Z,16.06
2022-10-31T17:09:09.012Z,16.02
2022-10-31T17:11:35.855Z,15.92
2022-10-31T17:14:02.744Z,15.83
2022-10-31T17:16:29.191Z,15.77
2022-10-31T17:18:55.957Z,15.71
2022-10-31T17:21:23.564Z,15.61
2022-10-31T17:23:51.040Z,15.50
2022-10-31T17:26:18.439Z,15.47
2022-10-31T17:28:45.058Z,15.39
2022-10-31T17:31:20.903Z,15.36
2022-10-31T17:33:47.427Z,15.31
2022-10-31T17:36:13.884Z,15.29
2022-10-31T17:38:40.745Z,15.22
2022-10-31T17:41:11.050Z,15.18
2022-10-31T17:43:38.524Z,15.13
2022-10-31T17:46:05.173Z,15.10
2022-10-31T17:48:33.699Z,15.05
2022-10-31T17:51:04.054Z,15.06
2022-10-31T17:53:31.572Z,15.00
2022-10-31T17:56:08.225Z,14.99
2022-10-31T17:58:36.382Z,14.97
2022-10-31T18:01:08.941Z,14.98
2022-10-31T18:03:36.068Z,14.94
2022-10-31T18:06:02.519Z,14.98
2022-10-31T18:08:31.628Z,14.99
2022-10-31T18:11:00.997Z,15.03
2022-10-31T18:13:28.315Z,14.94
2022-10-31T18:15:55.058Z,14.95
2022-10-31T18:18:21.828Z,14.88
2022-10-31T18:20:48.508Z,14.82
2022-10-31T18:23:14.968Z,14.84
2022-10-31T18:25:43.420Z,14.81
2022-10-31T18:28:10.202Z,14.74
2022-10-31T18:30:41.046Z,14.73
2022-10-31T18:33:08.063Z,14.67
2022-10-31T18:35:38.241Z,14.70
2022-10-31T18:38:06.150Z,14.64
2022-10-31T18:40:34.729Z,14.61
2022-10-31T18:43:01.360Z,14.55
2022-10-31T18:45:41.695Z,14.57
2022-10-31T18:48:14.467Z,14.52
2022-10-31T18:50:41.342Z,14.49
2022-10-31T18:53:07.880Z,14.42
2022-10-31T18:55:34.877Z,14.32
2022-10-31T18:58:01.361Z,14.29
2022-10-31T19:00:27.903Z,14.22
2022-10-31T19:02:57.202Z,14.12
2022-10-31T19:05:23.942Z,14.06
2022-10-31T19:07:54.696Z,13.91
2022-10-31T19:10:21.210Z,13.84
2022-10-31T19:12:47.669Z,13.73
2022-10-31T19:15:14.492Z,13.72
2022-10-31T19:17:41.031Z,13.70
2022-10-31T19:20:08.359Z,13.62
2022-10-31T19:22:34.790Z,13.50
2022-10-31T19:25:05.037Z,13.48
2022-10-31T19:27:36.847Z,13.39
2022-10-31T19:30:04.064Z,13.35
2022-10-31T19:32:30.570Z,13.30
2022-10-31T19:34:57.084Z,13.27
2022-10-31T19:37:23.550Z,13.24
2022-10-31T19:39:50.069Z,13.23
2022-10-31T19:42:16.889Z,13.22
2022-10-31T19:44:43.386Z,13.17
2022-10-31T19:47:10.805Z,13.17
2022-10-31T19:49:37.407Z,13.13
2022-10-31T19:52:04.038Z,13.17
2022-10-31T19:54:32.015Z,13.17
2022-10-31T19:56:58.570Z,13.09
2022-10-31T19:59:26.232Z,13.07
2022-10-31T20:01:52.855Z,12.97
2022-10-31T20:04:19.388Z,12.94
2022-10-31T20:06:46.277Z,12.98
2022-10-31T20:09:14.142Z,13.08
2022-10-31T20:11:41.904Z,13.19
2022-10-31T20:14:11.591Z,13.32
2022-10-31T20:16:38.591Z,13.38
2022-10-31T20:19:05.291Z,13.56
2022-10-31T20:21:32.271Z,13.69
2022-10-31T20:24:00.601Z,13.57
2022-10-31T20:26:27.956Z,13.43
2022-10-31T20:28:58.733Z,13.42
2022-10-31T20:31:28.437Z,13.54
2022-10-31T20:33:55.820Z,13.49
2022-10-31T20:36:23.480Z,13.47
2022-10-31T20:38:51.662Z,13.46
2022-10-31T20:41:18.776Z,13.41
2022-10-31T20:43:46.089Z,13.51
2022-10-31T20:46:15.556Z,13.59
2022-10-31T20:48:42.168Z,13.52
2022-10-31T20:51:12.934Z,13.44
2022-10-31T20:53:39.453Z,13.38
2022-10-31T20:56:12.324Z,13.41
2022-10-31T20:58:40.195Z,13.43
2022-10-31T21:01:28.951Z,13.35
2022-10-31T21:03:55.998Z,13.19
2022-10-31T21:06:23.380Z,13.17
2022-10-31T21:08:50.463Z,13.04
2022-10-31T21:11:20.034Z,13.00
2022-10-31T21:13:47.385Z,13.05
2022-10-31T21:16:19.667Z,13.27
2022-10-31T21:18:49.212Z,13.18
2022-10-31T21:21:42.201Z,13.19
2022-10-31T21:24:15.281Z,13.13
2022-10-31T21:26:44.699Z,12.99
2022-10-31T21:29:12.336Z,12.93
2022-10-31T21:31:40.287Z,12.87
2022-10-31T21:34:07.148Z,12.86
2022-10-31T21:36:34.679Z,12.84
2022-10-31T21:39:01.203Z,12.87
2022-10-31T21:41:28.113Z,12.76
2022-10-31T21:43:55.146Z,12.79
2022-10-31T21:46:32.257Z,12.72
2022-10-31T21:48:58.976Z,12.65
2022-10-31T21:51:30.949Z,12.61
2022-10-31T21:54:16.120Z,12.61
2022-10-31T21:56:43.224Z,12.51
2022-10-31T21:59:09.955Z,12.50
2022-10-31T22:01:36.644Z,12.44
2022-10-31T22:04:03.260Z,12.49
2022-10-31T22:06:32.421Z,12.39
2022-10-31T22:09:00.221Z,12.41
2022-10-31T22:11:28.384Z,12.58
2022-10-31T22:13:55.560Z,12.48
2022-10-31T22:16:23.384Z,12.55
2022-10-31T22:18:54.683Z,12.49
2022-10-31T22:21:24.876Z,12.48
2022-10-31T22:23:56.889Z,12.45
2022-10-31T22:26:23.583Z,12.43
2022-10-31T22:28:55.903Z,12.34
2022-10-31T22:31:24.138Z,12.31
2022-10-31T22:33:51.016Z,12.24
2022-10-31T22:36:20.438Z,12.13
2022-10-31T22:38:47.484Z,12.02
2022-10-31T22:41:20.082Z,11.97
2022-10-31T22:43:47.252Z,11.90
2022-10-31T22:46:17.008Z,11.82
2022-10-31T22:48:46.045Z,11.83
2022-10-31T22:51:17.865Z,11.81
2022-10-31T22:53:45.181Z,11.73
2022-10-31T22:56:14.320Z,11.65
2022-10-31T22:58:40.945Z,11.66
2022-10-31T23:01:12.813Z,11.61
2022-10-31T23:03:39.468Z,11.56
2022-10-31T23:06:07.082Z,11.51
2022-10-31T23:08:35.708Z,11.49
2022-10-31T23:11:04.200Z,11.51
2022-10-31T23:13:49.324Z,11.45
2022-10-31T23:16:15.735Z,11.46
2022-10-31T23:18:49.948Z,11.52
2022-10-31T23:21:37.499Z,11.60
2022-10-31T23:24:04.327Z,12.10
2022-10-31T23:26:49.361Z,12.31
2022-10-31T23:29:15.850Z,12.38
2022-10-31T23:31:42.258Z,12.55
2022-10-31T23:34:08.748Z,12.73
2022-10-31T23:36:35.199Z,12.70
2022-10-31T23:39:01.674Z,12.82
2022-10-31T23:41:28.091Z,12.76
2022-10-31T23:43:55.059Z,12.80
2022-10-31T23:46:21.623Z,12.93
2022-10-31T23:48:49.385Z,12.90
2022-10-31T23:51:15.852Z,12.87
2022-10-31T23:53:46.008Z,12.91
2022-10-31T23:56:13.341Z,12.73
2022-10-31T23:58:40.318Z,12.54
